Time;durP1;ratioP1;P1;durP2;ratioP2;P2;SDS_P1;SDS_P2;PMS_P1;PMS_P2;Temp;Humidity;BMP_temperature;BMP_pressure;BME280_temperature;BME280_humidity;BME280_pressure;Samples;Min_cycle;Max_cycle;Signal;HPM_P1;HPM_P2
2022/04/27 00:01:50;;;;;;;5.65;2.15;;;;;;;16.24;100.00;100020.25;5130667;27;20200;-75
2022/04/27 00:04:17;;;;;;;5.25;1.88;;;;;;;16.05;100.00;100010.81;5130361;28;20197;-76
2022/04/27 00:06:44;;;;;;;2.72;2.03;;;;;;;16.02;100.00;100025.66;5127159;28;20185;-76
2022/04/27 00:09:11;;;;;;;1.85;1.67;;;;;;;15.95;100.00;100027.47;5111333;28;20197;-75
2022/04/27 00:11:38;;;;;;;20.00;3.15;;;;;;;15.96;100.00;100033.56;5129799;28;20245;-75
2022/04/27 00:14:05;;;;;;;4.53;1.70;;;;;;;15.91;100.00;100030.97;5130060;28;20645;-76
2022/04/27 00:16:32;;;;;;;4.85;2.30;;;;;;;15.91;100.00;100020.53;5102352;28;20263;-75
2022/04/27 00:19:01;;;;;;;2.38;2.20;;;;;;;15.84;100.00;100018.84;5128844;27;20196;-74
2022/04/27 00:21:28;;;;;;;3.42;1.90;;;;;;;15.82;100.00;100015.38;5134942;27;20197;-75
2022/04/27 00:23:54;;;;;;;2.40;2.20;;;;;;;15.53;100.00;99973.75;5134092;27;20203;-75
2022/04/27 00:26:21;;;;;;;3.75;1.80;;;;;;;15.87;100.00;100027.53;5133821;27;20224;-76
2022/04/27 00:28:48;;;;;;;4.05;2.30;;;;;;;15.86;100.00;100028.44;5134424;27;20222;-75
2022/04/27 00:31:15;;;;;;;4.60;2.47;;;;;;;15.83;100.00;100032.81;5134200;27;20664;-75
2022/04/27 00:33:41;;;;;;;3.20;2.28;;;;;;;15.64;100.00;99985.00;5134408;27;20207;-75
2022/04/27 00:36:10;;;;;;;3.08;1.90;;;;;;;15.82;100.00;100010.16;5133989;27;20205;-75
2022/04/27 00:38:36;;;;;;;2.17;2.00;;;;;;;15.68;100.00;100012.88;5133534;27;20553;-75
2022/04/27 00:41:03;;;;;;;4.20;2.30;;;;;;;15.48;100.00;99998.16;5098059;27;20204;-75
2022/04/27 00:43:38;;;;;;;5.22;2.22;;;;;;;15.60;100.00;100021.63;5133816;27;20201;-75
2022/04/27 00:46:05;;;;;;;3.95;2.67;;;;;;;15.59;100.00;100018.13;5133712;27;20204;-75
2022/04/27 00:48:31;;;;;;;4.75;2.65;;;;;;;15.47;100.00;100001.66;5133925;27;20199;-75
2022/04/27 00:51:02;;;;;;;2.95;2.50;;;;;;;15.51;100.00;100024.31;5133837;27;20217;-73
2022/04/27 00:53:30;;;;;;;3.38;2.70;;;;;;;15.02;100.00;99950.53;5133696;27;20231;-75
2022/04/27 00:55:58;;;;;;;3.10;2.42;;;;;;;15.54;100.00;100024.28;5134294;27;20197;-75
2022/04/27 00:58:26;;;;;;;3.70;2.05;;;;;;;15.82;100.00;100018.88;5133192;27;20204;-75
2022/04/27 01:00:53;;;;;;;3.08;2.22;;;;;;;15.62;100.00;99985.91;5133704;27;20216;-75
2022/04/27 01:03:20;;;;;;;2.85;2.58;;;;;;;15.75;100.00;100025.00;5126530;27;20718;-75
2022/04/27 01:05:48;;;;;;;8.90;2.30;;;;;;;15.65;100.00;100012.88;5113362;28;20236;-75
2022/04/27 01:08:16;;;;;;;2.35;1.73;;;;;;;15.66;100.00;100025.06;5117517;27;20225;-75
2022/04/27 01:10:44;;;;;;;3.42;2.13;;;;;;;15.68;100.00;100023.31;5097194;27;20820;-75
2022/04/27 01:13:13;;;;;;;2.28;2.08;;;;;;;15.52;100.00;100002.53;5132592;27;20245;-75
2022/04/27 01:15:40;;;;;;;2.85;2.00;;;;;;;15.62;100.00;100022.50;5133588;27;20282;-75
2022/04/27 01:18:09;;;;;;;5.13;2.20;;;;;;;15.63;100.00;100029.44;5131772;27;20205;-76
2022/04/27 01:20:38;;;;;;;5.30;2.20;;;;;;;15.70;100.00;100026.78;5122273;27;20227;-76
2022/04/27 01:23:06;;;;;;;3.63;2.20;;;;;;;15.73;100.00;100031.97;5133246;27;20748;-75
2022/04/27 01:25:50;;;;;;;2.53;2.03;;;;;;;15.66;100.00;100034.69;5133359;27;20387;-74
2022/04/27 01:28:18;;;;;;;2.85;2.22;;;;;;;15.63;100.00;100032.06;5116954;27;20201;-74
2022/04/27 01:30:45;;;;;;;4.38;2.10;;;;;;;15.61;100.00;100033.81;5133646;27;20212;-76
2022/04/27 01:33:13;;;;;;;2.70;2.17;;;;;;;15.58;100.00;100032.09;5133256;27;20235;-75
2022/04/27 01:35:42;;;;;;;2.42;2.22;;;;;;;15.63;100.00;100032.94;5133075;27;20204;-76
2022/04/27 01:38:09;;;;;;;2.35;2.20;;;;;;;15.55;100.00;100036.47;5133430;27;20215;-75
2022/04/27 01:40:36;;;;;;;3.05;2.75;;;;;;;15.41;100.00;100017.38;5132878;27;20200;-75
2022/04/27 01:43:04;;;;;;;2.75;2.05;;;;;;;15.41;100.00;100028.66;5141568;27;20211;-75
2022/04/27 01:45:30;;;;;;;1.90;1.80;;;;;;;15.36;100.00;100020.88;5153964;27;20196;-75
2022/04/27 01:47:58;;;;;;;2.13;2.03;;;;;;;14.83;100.00;99954.97;5138161;27;20568;-75
2022/04/27 01:50:24;;;;;;;6.10;2.65;;;;;;;15.25;100.00;100020.06;5132734;27;20279;-74
2022/04/27 01:55:37;;;;;;;2.40;2.15;;;;;;;15.24;100.00;100020.91;5131545;27;20200;-75
2022/04/27 01:58:04;;;;;;;2.58;1.98;;;;;;;15.27;100.00;100009.56;5132671;27;20193;-75
2022/04/27 02:00:31;;;;;;;2.45;2.25;;;;;;;15.35;100.00;100040.03;5132602;27;20193;-76
2022/04/27 02:02:59;;;;;;;2.17;2.05;;;;;;;15.46;100.00;100015.56;5109267;28;20277;-75
2022/04/27 02:05:26;;;;;;;4.60;2.10;;;;;;;15.48;100.00;100032.13;5127803;27;20292;-75
2022/04/27 02:07:54;;;;;;;2.90;2.05;;;;;;;15.50;100.00;100040.84;5132632;27;20196;-75
2022/04/27 02:10:21;;;;;;;2.95;2.15;;;;;;;15.31;100.00;100006.94;5132347;27;20689;-75
2022/04/27 02:12:48;;;;;;;2.95;2.20;;;;;;;15.45;100.00;100029.50;5132269;27;20699;-75
2022/04/27 02:15:15;;;;;;;2.42;2.10;;;;;;;15.38;100.00;100015.63;5132224;27;20200;-76
2022/04/27 02:17:42;;;;;;;2.38;2.20;;;;;;;15.45;100.00;100024.28;5080740;27;20595;-74
2022/04/27 02:20:10;;;;;;;2.30;2.20;;;;;;;15.50;100.00;100035.63;5095934;27;20197;-75
2022/04/27 02:22:37;;;;;;;7.43;2.25;;;;;;;15.39;100.00;100013.00;5132260;27;20203;-74
2022/04/27 02:25:06;;;;;;;2.55;2.05;;;;;;;15.47;100.00;100018.19;5132125;27;20592;-76
2022/04/27 02:27:33;;;;;;;3.35;2.40;;;;;;;15.54;100.00;100032.13;5131650;27;20225;-76
2022/04/27 02:30:00;;;;;;;3.00;2.17;;;;;;;15.59;100.00;100032.97;5131918;27;20231;-75
2022/04/27 02:32:27;;;;;;;3.35;2.35;;;;;;;15.42;100.00;100024.31;5132464;27;20231;-74
2022/04/27 02:34:54;;;;;;;3.63;2.50;;;;;;;15.16;100.00;99987.91;5131760;27;20212;-76
2022/04/27 02:37:21;;;;;;;3.25;2.40;;;;;;;15.35;100.00;100029.56;5131814;27;20201;-74
2022/04/27 02:39:48;;;;;;;6.60;2.63;;;;;;;15.06;100.00;99986.19;5131583;27;20283;-75
2022/04/27 02:42:16;;;;;;;2.15;1.92;;;;;;;15.36;100.00;100031.31;5130763;27;20196;-74
2022/04/27 02:44:43;;;;;;;2.70;2.10;;;;;;;15.24;100.00;100020.91;5131629;27;20201;-75
2022/04/27 02:47:09;;;;;;;3.03;2.17;;;;;;;15.16;100.00;99996.56;5131631;27;20238;-75
2022/04/27 02:52:21;;;;;;;2.10;1.75;;;;;;;15.27;100.00;100015.69;5131443;27;20227;-75
2022/04/27 02:54:47;;;;;;;1.98;1.80;;;;;;;15.33;100.00;100010.44;5131924;27;20204;-75
2022/04/27 02:57:16;;;;;;;3.65;2.20;;;;;;;15.41;100.00;100025.22;5131206;27;20196;-75
2022/04/27 02:59:43;;;;;;;4.78;2.40;;;;;;;15.48;100.00;100032.13;5131552;27;20201;-75
2022/04/27 03:02:10;;;;;;;1.75;1.67;;;;;;;15.54;100.00;100039.97;5131602;27;20205;-76
2022/04/27 03:04:37;;;;;;;2.47;1.92;;;;;;;15.47;100.00;100022.56;5131461;27;20200;-77
2022/04/27 03:07:04;;;;;;;2.17;1.88;;;;;;;15.51;100.00;100035.63;5131261;27;20204;-79
2022/04/27 03:09:31;;;;;;;2.17;1.95;;;;;;;15.57;100.00;100037.31;5093218;27;20193;-78
2022/04/27 03:11:57;;;;;;;2.03;1.80;;;;;;;15.60;100.00;100034.69;5130706;27;20289;-79
2022/04/27 03:14:26;;;;;;;2.13;2.03;;;;;;;15.63;100.00;100042.50;5130831;27;20691;-79
2022/04/27 03:16:53;;;;;;;5.00;2.10;;;;;;;14.34;100.00;99845.56;5131045;27;20200;-79
2022/04/27 03:19:20;;;;;;;3.83;1.90;;;;;;;15.58;100.00;100036.47;5131039;27;20224;-78
2022/04/27 03:21:47;;;;;;;4.07;2.05;;;;;;;15.61;100.00;100041.66;5131044;27;20196;-76
2022/04/27 03:24:13;;;;;;;4.45;3.08;;;;;;;15.95;100.00;100044.91;5131045;27;20193;-76
2022/04/27 03:26:41;;;;;;;4.22;2.25;;;;;;;15.76;100.00;100052.91;5111800;27;20197;-76
2022/04/27 03:29:08;;;;;;;5.13;1.80;;;;;;;15.82;100.00;100062.44;5130629;27;20200;-76
2022/04/27 03:31:36;;;;;;;2.67;2.15;;;;;;;15.85;100.00;100062.41;5129598;27;20208;-78
2022/04/27 03:34:03;;;;;;;5.40;2.40;;;;;;;15.64;100.00;100031.19;5130740;27;20250;-77
2022/04/27 03:36:29;;;;;;;5.18;2.30;;;;;;;15.64;100.00;100052.09;5129794;27;20200;-77
2022/04/27 03:38:56;;;;;;;4.97;2.70;;;;;;;15.61;100.00;100073.91;5116180;27;20594;-77
2022/04/27 03:41:23;;;;;;;6.90;2.80;;;;;;;15.30;100.00;100075.75;5130231;27;20213;-77
2022/04/27 03:43:51;;;;;;;3.92;3.13;;;;;;;15.25;100.00;100074.91;5130947;27;20200;-77
2022/04/27 03:46:19;;;;;;;5.75;3.60;;;;;;;15.08;100.00;100019.28;5130734;27;20253;-76
2022/04/27 03:48:47;;;;;;;9.57;4.82;;;;;;;15.98;100.00;100077.13;5130948;27;20189;-74
2022/04/27 03:51:15;;;;;;;4.13;3.50;;;;;;;15.89;100.00;100074.59;5130417;27;20197;-76
2022/04/27 03:53:41;;;;;;;4.30;2.95;;;;;;;16.36;100.00;100085.56;5130398;28;20228;-77
2022/04/27 03:56:08;;;;;;;12.60;3.20;;;;;;;16.81;100.00;100091.28;5130322;27;20200;-77
2022/04/27 03:58:35;;;;;;;7.35;3.13;;;;;;;17.34;100.00;100099.41;5130020;27;20598;-77
2022/04/27 04:01:02;;;;;;;8.18;3.30;;;;;;;17.60;100.00;100100.88;5130423;27;20600;-76
2022/04/27 04:03:29;;;;;;;5.78;3.50;;;;;;;17.68;100.00;100085.91;5130326;28;20203;-77
2022/04/27 04:05:57;;;;;;;6.95;2.47;;;;;;;18.44;100.00;100104.00;5130720;27;20193;-77
2022/04/27 04:08:24;;;;;;;3.50;2.70;;;;;;;18.78;100.00;100104.31;5129992;28;20875;-75
2022/04/27 04:10:50;;;;;;;6.90;3.20;;;;;;;19.03;100.00;100084.56;5129447;28;20615;-76
2022/04/27 04:13:17;;;;;;;6.13;2.92;;;;;;;19.71;100.00;100112.13;5129950;28;20295;-76
2022/04/27 04:15:44;;;;;;;9.48;3.28;;;;;;;20.00;100.00;100053.56;5090176;28;20305;-76
2022/04/27 04:18:11;;;;;;;9.77;3.30;;;;;;;20.59;99.58;100096.88;5128289;28;20196;-77
2022/04/27 04:20:37;;;;;;;6.57;3.15;;;;;;;20.87;96.35;100112.00;5128164;28;20196;-77
2022/04/27 04:23:06;;;;;;;4.93;3.10;;;;;;;21.11;91.63;100124.53;5093884;28;20209;-77
2022/04/27 04:28:31;;;;;;;4.25;3.22;;;;;;;21.40;84.11;100110.53;5130154;28;20234;-76
2022/04/27 04:30:59;;;;;;;6.10;2.85;;;;;;;21.58;82.40;100092.38;5130247;28;20196;-78
2022/04/27 04:33:26;;;;;;;11.13;3.17;;;;;;;22.40;78.62;100133.91;5130010;27;20221;-76
2022/04/27 04:35:53;;;;;;;5.22;2.55;;;;;;;22.42;76.83;100138.22;5130304;27;20208;-77
2022/04/27 04:38:21;;;;;;;6.82;2.72;;;;;;;22.95;75.33;100138.22;5129713;27;20201;-77
2022/04/27 04:40:48;;;;;;;4.80;2.70;;;;;;;23.02;72.04;100152.94;5144188;27;20204;-77
2022/04/27 04:43:15;;;;;;;5.68;2.47;;;;;;;23.09;70.08;100135.94;5151310;27;20199;-78
2022/04/27 04:45:43;;;;;;;2.85;2.03;;;;;;;21.85;73.41;100171.66;5110312;28;20208;-78
2022/04/27 04:48:09;;;;;;;2.50;2.30;;;;;;;19.36;93.87;100177.69;5110037;28;20673;-77
2022/04/27 04:50:37;;;;;;;6.13;3.03;;;;;;;19.10;96.96;100137.88;5110010;28;20607;-77
2022/04/27 04:53:04;;;;;;;6.10;2.85;;;;;;;19.08;98.72;100198.38;5109659;28;20780;-78
2022/04/27 04:55:32;;;;;;;3.20;3.00;;;;;;;18.66;100.00;100172.78;5111280;27;20207;-78
2022/04/27 04:58:00;;;;;;;4.00;3.10;;;;;;;18.16;100.00;100182.28;5151490;27;20219;-76
2022/04/27 05:00:27;;;;;;;7.20;3.08;;;;;;;18.06;100.00;100175.44;5151054;27;20948;-76
2022/04/27 05:02:54;;;;;;;3.20;2.85;;;;;;;17.72;100.00;100171.53;5152856;27;20557;-76
2022/04/27 05:05:21;;;;;;;6.20;3.20;;;;;;;18.37;100.00;100201.25;5154907;27;20692;-75
2022/04/27 05:07:48;;;;;;;3.92;2.70;;;;;;;18.40;100.00;100196.84;5154697;27;20211;-73
2022/04/27 05:10:15;;;;;;;10.00;3.08;;;;;;;18.18;100.00;100128.03;5148111;27;20257;-74
2022/04/27 05:12:43;;;;;;;4.35;2.55;;;;;;;18.45;100.00;100202.00;5133624;27;20320;-73
2022/04/27 05:15:11;;;;;;;3.33;2.97;;;;;;;18.42;100.00;100184.53;5133653;27;20201;-73
2022/04/27 05:17:39;;;;;;;10.48;3.33;;;;;;;19.54;100.00;100187.00;5133019;27;20200;-75
2022/04/27 05:20:07;;;;;;;6.22;3.20;;;;;;;19.66;99.42;100192.00;5097291;27;20538;-75
2022/04/27 05:22:35;;;;;;;4.70;2.60;;;;;;;18.72;100.00;100199.00;5133149;27;20695;-74
2022/04/27 05:25:03;;;;;;;5.88;2.45;;;;;;;18.92;100.00;100202.13;5113854;27;20220;-73
2022/04/27 05:27:30;;;;;;;7.47;2.70;;;;;;;18.98;100.00;100202.03;5133327;27;20212;-78
2022/04/27 05:32:43;;;;;;;6.85;3.30;;;;;;;18.73;100.00;100190.19;5131904;27;20349;-77
2022/04/27 05:35:10;;;;;;;12.57;2.88;;;;;;;18.88;100.00;100178.56;5143190;27;20192;-77
2022/04/27 05:37:37;;;;;;;4.50;2.97;;;;;;;18.49;100.00;100207.19;5154459;27;20203;-80
2022/04/27 05:40:05;;;;;;;2.80;2.60;;;;;;;18.42;100.00;100204.66;5154242;27;20204;-78
2022/04/27 05:42:32;;;;;;;5.25;2.70;;;;;;;18.24;100.00;100206.69;5154073;27;20232;-77
2022/04/27 05:45:00;;;;;;;5.13;2.80;;;;;;;18.20;100.00;100194.47;5154148;27;20204;-75
2022/04/27 05:47:27;;;;;;;4.53;2.97;;;;;;;17.79;100.00;100194.19;5134075;27;20193;-77
2022/04/27 05:49:54;;;;;;;4.82;2.80;;;;;;;17.57;100.00;100192.69;5133560;27;20197;-75
2022/04/27 05:52:21;;;;;;;3.47;2.72;;;;;;;17.53;100.00;100201.44;5133114;27;20196;-73
2022/04/27 05:54:48;;;;;;;47.75;7.68;;;;;;;17.86;100.00;100208.06;5133282;27;20208;-76
2022/04/27 05:57:15;;;;;;;9.65;3.55;;;;;;;17.86;100.00;100187.97;5132772;27;20664;-73
2022/04/27 05:59:42;;;;;;;3.53;3.03;;;;;;;17.81;100.00;100200.25;5132872;27;20197;-73
2022/04/27 06:02:10;;;;;;;14.70;3.40;;;;;;;17.72;100.00;100184.66;5132930;27;20618;-74
2022/04/27 06:04:37;;;;;;;21.60;7.75;;;;;;;17.91;100.00;100208.91;5132616;27;20188;-74
2022/04/27 06:07:07;;;;;;;6.30;2.83;;;;;;;17.91;100.00;100207.13;5132096;27;20668;-73
2022/04/27 06:09:34;;;;;;;6.93;3.05;;;;;;;17.94;100.00;100198.34;5132465;27;20294;-73
2022/04/27 06:12:01;;;;;;;6.57;3.33;;;;;;;18.34;100.00;100216.16;5132132;27;20677;-73
2022/04/27 06:14:28;;;;;;;7.72;3.03;;;;;;;18.40;100.00;100222.22;5131832;27;20224;-73
2022/04/27 06:16:55;;;;;;;11.43;3.30;;;;;;;18.08;100.00;100189.41;5132018;27;20257;-73
2022/04/27 06:19:23;;;;;;;3.50;2.80;;;;;;;18.33;100.00;100203.91;5132020;27;20556;-73
2022/04/27 06:21:50;;;;;;;3.40;2.28;;;;;;;18.31;100.00;100215.31;5112835;27;20193;-73
2022/04/27 06:24:17;;;;;;;4.40;2.95;;;;;;;17.85;100.00;100152.13;5131610;27;20208;-73
2022/04/27 06:26:44;;;;;;;2.83;2.63;;;;;;;18.25;100.00;100212.78;5095979;27;20299;-73
2022/04/27 06:29:10;;;;;;;5.25;2.83;;;;;;;18.58;100.00;100237.72;5131935;27;20192;-74
2022/04/27 06:31:37;;;;;;;2.67;2.45;;;;;;;18.59;100.00;100223.69;5095621;27;20197;-73
2022/04/27 06:34:04;;;;;;;8.13;2.50;;;;;;;18.95;100.00;100232.75;5131554;27;20228;-73
2022/04/27 06:36:34;;;;;;;3.95;2.58;;;;;;;19.08;100.00;100219.41;5131404;27;20192;-73
2022/04/27 06:39:01;;;;;;;8.40;3.00;;;;;;;19.05;100.00;100218.59;5096282;27;20667;-73
2022/04/27 06:41:28;;;;;;;5.32;2.40;;;;;;;19.28;99.17;100240.94;5131993;27;20203;-73
2022/04/27 06:43:54;;;;;;;2.85;2.15;;;;;;;19.37;96.79;100246.94;5130640;27;20201;-73
2022/04/27 06:46:21;;;;;;;9.55;2.55;;;;;;;19.39;94.85;100240.75;5124251;27;20283;-73
2022/04/27 06:48:48;;;;;;;3.63;2.60;;;;;;;19.44;91.17;100224.91;5122665;27;20198;-74
2022/04/27 06:51:17;;;;;;;4.38;2.88;;;;;;;19.33;90.79;100244.31;5114914;27;20192;-72
2022/04/27 06:53:47;;;;;;;3.85;2.20;;;;;;;19.00;95.71;100246.69;5119035;27;20217;-75
2022/04/27 06:56:16;;;;;;;7.30;2.47;;;;;;;18.97;96.47;100236.25;5131191;27;20193;-76
2022/04/27 06:58:42;;;;;;;2.88;2.10;;;;;;;18.80;97.37;100212.84;5131465;27;20257;-77
2022/04/27 07:01:10;;;;;;;2.33;2.22;;;;;;;19.07;97.24;100253.56;5131446;27;20227;-77
2022/04/27 07:03:38;;;;;;;2.72;2.20;;;;;;;19.25;94.49;100250.63;5131502;27;20203;-75
2022/04/27 07:06:05;;;;;;;3.15;2.08;;;;;;;19.23;93.27;100255.91;5094728;27;20184;-75
2022/04/27 07:08:32;;;;;;;2.70;2.30;;;;;;;19.22;93.64;100246.31;5131490;27;20192;-75
2022/04/27 07:11:01;;;;;;;3.08;2.80;;;;;;;19.23;95.57;100234.88;5131270;27;20200;-75
2022/04/27 07:13:29;;;;;;;4.35;2.10;;;;;;;19.39;97.44;100246.00;5131566;27;20232;-75
2022/04/27 07:16:00;;;;;;;3.92;2.10;;;;;;;19.43;98.57;100257.38;5095376;27;20640;-75
2022/04/27 07:18:28;;;;;;;2.38;1.95;;;;;;;19.63;97.64;100247.31;5130204;27;20668;-75
2022/04/27 07:20:55;;;;;;;7.18;2.53;;;;;;;19.13;97.54;100174.59;5130800;27;20181;-77
2022/04/27 07:23:21;;;;;;;4.07;2.53;;;;;;;19.76;94.31;100254.09;5130733;27;20200;-75
2022/04/27 07:25:48;;;;;;;2.92;2.03;;;;;;;19.83;92.37;100255.72;5129772;27;20232;-76
2022/04/27 07:28:17;;;;;;;5.50;2.40;;;;;;;19.99;92.35;100249.22;5094739;27;20755;-75
2022/04/27 07:30:44;;;;;;;3.15;1.80;;;;;;;19.83;86.11;100232.03;5131186;27;20205;-74
2022/04/27 07:33:11;;;;;;;5.63;1.77;;;;;;;19.71;87.38;100250.69;5131167;27;20216;-76
2022/04/27 07:35:37;;;;;;;5.00;2.38;;;;;;;19.78;90.00;100247.03;5130436;27;20278;-75
2022/04/27 07:38:04;;;;;;;3.42;2.97;;;;;;;20.10;93.01;100260.41;5130632;27;20193;-77
2022/04/27 07:40:31;;;;;;;3.25;2.00;;;;;;;19.99;88.88;100243.97;5130504;27;20628;-77
2022/04/27 07:42:59;;;;;;;9.57;2.13;;;;;;;19.93;91.69;100214.28;5131099;27;20200;-76
2022/04/27 07:45:27;;;;;;;3.03;1.73;;;;;;;19.80;88.42;100242.59;5130274;27;20256;-75
2022/04/27 07:47:54;;;;;;;4.55;2.40;;;;;;;19.83;93.06;100208.34;5130427;27;20624;-76
2022/04/27 07:50:21;;;;;;;5.75;2.15;;;;;;;20.25;93.77;100225.00;5130075;27;20648;-75
2022/04/27 07:52:48;;;;;;;4.00;2.65;;;;;;;20.30;87.80;100238.94;5136638;27;20204;-77
2022/04/27 07:55:15;;;;;;;2.38;2.28;;;;;;;20.44;86.64;100247.41;5137367;27;20192;-74
2022/04/27 07:57:42;;;;;;;3.15;2.15;;;;;;;20.26;87.46;100224.94;5145814;27;20277;-75
2022/04/27 08:00:11;;;;;;;2.35;2.13;;;;;;;20.45;91.29;100250.91;5128967;27;20205;-76
2022/04/27 08:02:40;;;;;;;3.88;2.72;;;;;;;20.50;88.76;100251.69;5131028;28;20209;-76
2022/04/27 08:05:08;;;;;;;5.53;2.72;;;;;;;20.52;88.78;100226.16;5126102;27;20230;-77
2022/04/27 08:07:36;;;;;;;3.92;2.08;;;;;;;20.77;82.09;100251.03;5088428;28;20204;-74
2022/04/27 08:10:09;;;;;;;6.50;2.72;;;;;;;20.78;81.26;100252.75;5109765;28;20204;-74
2022/04/27 08:12:36;;;;;;;5.13;2.17;;;;;;;20.88;82.38;100248.13;5129784;27;20207;-74
2022/04/27 08:15:03;;;;;;;2.10;1.90;;;;;;;20.88;80.76;100240.22;5128517;27;21056;-74
2022/04/27 08:17:30;;;;;;;3.72;1.90;;;;;;;20.84;82.03;100242.06;5128335;28;20256;-75
2022/04/27 08:22:38;;;;;;;2.72;2.03;;;;;;;20.91;84.24;100230.47;5121765;28;20242;-76
2022/04/27 08:25:06;;;;;;;5.45;2.38;;;;;;;20.67;86.18;100204.72;5110043;28;20228;-76
2022/04/27 08:27:33;;;;;;;6.32;2.05;;;;;;;20.99;88.47;100233.78;5130330;28;20205;-75
2022/04/27 08:30:00;;;;;;;2.75;2.55;;;;;;;21.08;89.48;100230.91;5130310;28;20197;-76
2022/04/27 08:32:27;;;;;;;4.82;2.33;;;;;;;21.32;88.95;100229.47;5129931;28;20200;-76
2022/04/27 08:34:53;;;;;;;3.58;2.30;;;;;;;21.49;86.00;100231.63;5130348;28;20379;-77
2022/04/27 08:37:22;;;;;;;5.97;2.42;;;;;;;21.56;86.86;100227.91;5132200;27;20193;-76
2022/04/27 08:39:49;;;;;;;6.55;2.67;;;;;;;21.61;87.46;100232.19;5133956;27;20189;-76
2022/04/27 08:42:16;;;;;;;8.00;3.63;;;;;;;21.67;86.18;100228.50;5134412;27;20269;-77
2022/04/27 08:44:43;;;;;;;3.80;2.47;;;;;;;21.71;84.47;100222.22;5134347;27;20822;-77
2022/04/27 08:47:10;;;;;;;2.92;2.45;;;;;;;21.76;86.51;100231.72;5134127;27;20209;-77
2022/04/27 08:49:36;;;;;;;4.75;2.67;;;;;;;21.81;85.49;100218.41;5134210;27;20339;-76
2022/04/27 08:52:04;;;;;;;3.97;2.35;;;;;;;21.96;85.00;100223.28;5133716;27;20208;-77
2022/04/27 08:54:33;;;;;;;2.83;2.50;;;;;;;22.07;83.86;100221.19;5097901;27;20217;-77
2022/04/27 08:57:00;;;;;;;2.92;2.45;;;;;;;22.01;81.48;100224.00;5134001;27;20253;-75
2022/04/27 08:59:27;;;;;;;2.85;2.60;;;;;;;21.81;81.59;100218.41;5133732;27;20201;-77
2022/04/27 09:01:54;;;;;;;4.97;2.10;;;;;;;21.66;85.20;100205.63;5133985;27;20245;-75
2022/04/27 09:04:21;;;;;;;3.40;2.65;;;;;;;22.14;84.35;100211.31;5133739;27;20212;-76
2022/04/27 09:06:49;;;;;;;3.15;2.47;;;;;;;22.19;81.67;100206.75;5133682;27;20797;-76
2022/04/27 09:09:37;;;;;;;6.03;2.03;;;;;;;22.22;74.30;100209.31;5097593;27;20324;-75
2022/04/27 09:12:08;;;;;;;3.38;2.20;;;;;;;22.34;75.93;100214.19;5133766;27;20196;-76
2022/04/27 09:14:38;;;;;;;2.88;2.30;;;;;;;22.53;76.85;100211.84;5134066;27;20237;-77
2022/04/27 09:22:55;;;;;;;3.35;1.80;;;;;;;22.39;77.40;100192.94;5089936;28;20574;-77
2022/04/27 09:25:33;;;;;;;6.15;2.50;;;;;;;22.73;76.58;100196.25;5089698;28;20234;-77
2022/04/27 09:28:02;;;;;;;6.10;1.77;;;;;;;22.75;77.30;100191.78;5090152;28;20205;-77
2022/04/27 09:30:30;;;;;;;3.42;2.05;;;;;;;22.79;75.22;100179.34;5090116;28;20202;-76
2022/04/27 09:32:58;;;;;;;2.83;2.17;;;;;;;22.82;75.23;100189.81;5083118;28;20199;-77
2022/04/27 09:35:32;;;;;;;3.97;2.03;;;;;;;22.71;76.10;100184.88;5086368;28;20253;-76
2022/04/27 11:31:32;;;;;;;2.58;1.30;;;;;;;25.10;48.99;100100.63;5126936;27;20219;-77
2022/04/27 11:33:59;;;;;;;2.45;1.80;;;;;;;25.19;49.11;100097.53;5131396;27;20228;-76
2022/04/27 11:36:27;;;;;;;1.77;1.65;;;;;;;25.09;49.66;100094.44;5131444;27;20197;-78
2022/04/27 11:38:56;;;;;;;1.98;1.83;;;;;;;25.01;48.59;100078.00;5123178;27;20201;-77
2022/04/27 11:41:24;;;;;;;4.97;2.03;;;;;;;25.13;47.25;100082.78;5111308;27;20211;-78
2022/04/27 11:43:54;;;;;;;3.50;2.00;;;;;;;25.23;47.71;100071.72;5131207;27;20200;-77
2022/04/27 11:46:20;;;;;;;2.50;1.95;;;;;;;25.36;46.64;100067.59;5131333;27;20246;-77
2022/04/27 11:48:49;;;;;;;4.22;2.47;;;;;;;25.51;46.87;100077.53;5131481;27;20218;-76
2022/04/27 11:51:16;;;;;;;4.70;1.92;;;;;;;25.54;47.60;100080.06;5131345;28;20199;-78
2022/04/27 12:27:23;;;;;;;4.07;1.73;;;;;;;25.68;44.86;100037.78;5134936;27;20765;-73
2022/04/27 12:29:50;;;;;;;3.33;1.55;;;;;;;25.50;44.89;100022.69;5134709;27;20196;-73
2022/04/27 12:32:20;;;;;;;4.53;1.50;;;;;;;25.54;45.73;100019.81;5134789;27;20197;-73
2022/04/27 12:37:32;;;;;;;5.38;1.80;;;;;;;25.99;46.02;100027.41;5134708;27;20277;-73
2022/04/27 12:40:13;;;;;;;6.80;1.85;;;;;;;26.34;46.30;100022.16;5134565;27;20218;-74
2022/04/27 12:43:04;;;;;;;6.18;2.20;;;;;;;26.33;46.12;100020.41;5134555;27;20681;-72
2022/04/27 12:45:32;;;;;;;8.32;1.88;;;;;;;26.15;46.56;100009.75;5134399;27;20588;-72
2022/04/27 12:47:59;;;;;;;7.38;2.08;;;;;;;26.01;44.93;100014.88;5134692;27;20204;-73
2022/04/27 12:50:26;;;;;;;4.38;1.75;;;;;;;25.91;45.55;100018.94;5134505;27;20204;-73
2022/04/27 12:53:06;;;;;;;5.88;2.05;;;;;;;25.97;46.25;99997.38;5134426;27;20652;-73
2022/04/27 12:55:33;;;;;;;2.38;1.52;;;;;;;26.10;44.67;100009.13;5132180;27;20231;-72
2022/04/27 12:58:01;;;;;;;5.05;1.70;;;;;;;26.00;44.29;100015.84;5132127;27;20208;-73
2022/04/27 13:00:42;;;;;;;1.75;1.60;;;;;;;25.99;44.75;100005.28;5097706;27;20777;-73
2022/04/27 13:03:09;;;;;;;4.47;2.03;;;;;;;26.00;45.20;99991.06;5133547;27;20200;-72
2022/04/27 13:05:37;;;;;;;5.25;2.03;;;;;;;25.61;45.58;99969.97;5133438;27;20208;-72
2022/04/27 13:08:05;;;;;;;5.68;1.58;;;;;;;25.84;45.46;99975.00;5133677;27;20257;-72
2022/04/27 13:13:17;;;;;;;5.20;1.52;;;;;;;26.28;44.76;99985.25;5133740;27;20200;-72
2022/04/27 13:15:46;;;;;;;10.88;2.10;;;;;;;26.10;44.36;99971.91;5133693;27;20225;-76
2022/04/27 13:18:13;;;;;;;6.85;2.05;;;;;;;26.14;45.25;99976.16;5133507;27;20228;-71
2022/04/27 13:20:41;;;;;;;4.72;2.20;;;;;;;26.08;45.06;99968.47;5133043;27;20240;-71
2022/04/27 13:23:08;;;;;;;1.80;1.63;;;;;;;25.74;44.63;99936.56;5132416;27;20200;-71
2022/04/27 13:25:35;;;;;;;3.80;1.45;;;;;;;26.01;44.80;99976.81;5133489;27;20721;-72
2022/04/27 13:28:02;;;;;;;2.63;1.88;;;;;;;26.18;44.68;99979.53;5133225;27;20200;-73
2022/04/27 13:30:29;;;;;;;4.15;2.00;;;;;;;26.25;44.49;99958.81;5133240;27;20694;-73
2022/04/27 13:32:58;;;;;;;3.40;1.77;;;;;;;26.29;45.05;99981.66;5133020;27;20660;-72
2022/04/27 13:35:26;;;;;;;3.30;1.50;;;;;;;26.25;44.31;99975.63;5132728;27;20231;-71
2022/04/27 13:37:53;;;;;;;4.80;1.67;;;;;;;26.41;44.38;99976.56;5096896;27;20210;-70
2022/04/27 13:40:20;;;;;;;3.53;1.83;;;;;;;26.35;43.66;99976.88;5129745;27;20212;-73
2022/04/27 13:42:47;;;;;;;4.40;2.03;;;;;;;26.21;43.22;99971.41;5124612;27;20200;-73
2022/04/27 13:45:14;;;;;;;11.73;2.25;;;;;;;26.28;42.98;99975.47;5133214;27;20205;-70
2022/04/27 13:47:41;;;;;;;6.40;2.00;;;;;;;26.12;43.01;99934.63;5129164;27;20216;-73
2022/04/27 13:50:10;;;;;;;7.30;1.73;;;;;;;26.43;43.55;99968.50;5131315;27;20885;-73
2022/04/27 13:52:38;;;;;;;4.65;2.00;;;;;;;26.31;43.10;99942.53;5132636;27;20189;-72
2022/04/27 13:55:06;;;;;;;2.75;1.70;;;;;;;26.39;42.27;99957.19;5132047;27;20303;-72
2022/04/27 13:57:33;;;;;;;4.72;1.80;;;;;;;26.56;42.62;99970.44;5131272;27;20248;-70
2022/04/27 14:00:00;;;;;;;8.88;2.00;;;;;;;26.74;42.71;99965.09;5132056;27;20914;-70
2022/04/27 14:02:26;;;;;;;4.18;1.85;;;;;;;26.77;42.46;99971.13;5131689;27;21044;-70
2022/04/27 14:04:54;;;;;;;4.63;1.52;;;;;;;26.59;43.14;99964.09;5132392;27;20200;-72
2022/04/27 14:07:22;;;;;;;5.38;1.67;;;;;;;26.42;43.42;99964.13;5125228;27;20672;-72
2022/04/27 14:09:49;;;;;;;1.90;1.60;;;;;;;26.37;44.15;99952.84;5115588;27;20204;-71
2022/04/27 14:15:00;;;;;;;3.20;1.40;;;;;;;26.31;43.82;99961.16;5127503;27;20232;-71
2022/04/27 14:20:12;;;;;;;8.27;1.73;;;;;;;26.29;44.74;99955.06;5128301;27;20253;-71
2022/04/27 14:22:40;;;;;;;7.63;2.00;;;;;;;26.45;44.67;99954.19;5110268;27;20196;-71